createdAt,value
2022-09-17T00:01:27.380Z,1.95
2022-09-17T00:03:57.318Z,2.10
2022-09-17T00:06:26.556Z,1.90
2022-09-17T00:08:55.468Z,1.90
2022-09-17T00:11:26.586Z,2.28
2022-09-17T00:13:55.971Z,1.80
2022-09-17T00:16:27.485Z,2.33
2022-09-17T00:18:55.822Z,1.83
2022-09-17T00:21:24.037Z,2.00
2022-09-17T00:23:56.303Z,2.28
2022-09-17T00:26:26.135Z,2.13
2022-09-17T00:28:55.209Z,2.10
2022-09-17T00:31:23.943Z,1.80
2022-09-17T00:33:52.738Z,1.88
2022-09-17T00:36:21.652Z,1.77
2022-09-17T00:38:51.340Z,1.75
2022-09-17T00:41:19.704Z,1.90
2022-09-17T00:43:52.108Z,2.00
2022-09-17T00:46:34.289Z,2.05
2022-09-17T00:49:07.322Z,1.80
2022-09-17T00:51:38.518Z,2.53
2022-09-17T00:54:09.740Z,1.80
2022-09-17T00:56:40.609Z,1.80
2022-09-17T00:59:10.037Z,1.67
2022-09-17T01:01:39.119Z,1.92
2022-09-17T01:04:07.156Z,2.17
2022-09-17T01:06:39.751Z,1.80
2022-09-17T01:09:23.426Z,2.20
2022-09-17T01:12:14.978Z,2.03
2022-09-17T01:14:58.724Z,1.88
2022-09-17T01:17:33.934Z,2.35
2022-09-17T01:20:37.241Z,2.67
2022-09-17T01:23:34.722Z,2.47
2022-09-17T01:26:29.806Z,2.45
2022-09-17T01:29:10.554Z,2.47
2022-09-17T01:31:47.406Z,2.45
2022-09-17T01:34:25.082Z,2.85
2022-09-17T01:37:03.418Z,3.22
2022-09-17T01:39:43.054Z,2.42
2022-09-17T01:42:20.171Z,2.83
2022-09-17T01:44:57.664Z,2.50
2022-09-17T01:47:31.757Z,2.70
2022-09-17T01:50:04.593Z,2.85
2022-09-17T01:52:35.579Z,2.33
2022-09-17T01:55:07.091Z,2.65
2022-09-17T01:57:41.329Z,2.00
2022-09-17T02:00:12.122Z,2.83
2022-09-17T02:02:47.254Z,3.00
2022-09-17T02:05:19.277Z,2.80
2022-09-17T02:07:53.573Z,2.78
2022-09-17T02:10:25.619Z,2.70
2022-09-17T02:12:58.105Z,2.20
2022-09-17T02:15:30.105Z,2.92
2022-09-17T02:18:04.838Z,2.63
2022-09-17T02:20:40.430Z,2.70
2022-09-17T02:23:15.457Z,2.65
2022-09-17T02:25:48.660Z,2.60
2022-09-17T02:28:25.497Z,2.85
2022-09-17T02:30:53.484Z,2.70
2022-09-17T02:33:23.737Z,2.45
2022-09-17T02:35:52.001Z,2.35
2022-09-17T02:38:24.633Z,2.97
2022-09-17T02:40:57.639Z,2.42
2022-09-17T02:43:36.850Z,2.63
2022-09-17T02:46:22.865Z,2.55
2022-09-17T02:49:10.409Z,2.40
2022-09-17T02:51:48.521Z,2.30
2022-09-17T02:54:25.811Z,2.88
2022-09-17T02:57:02.409Z,2.58
2022-09-17T02:59:41.955Z,2.55
2022-09-17T03:02:17.560Z,2.58
2022-09-17T03:04:49.767Z,2.80
2022-09-17T03:07:20.539Z,2.70
2022-09-17T03:09:48.477Z,2.75
2022-09-17T03:12:16.869Z,2.50
2022-09-17T03:14:44.785Z,2.50
2022-09-17T03:17:14.938Z,2.70
2022-09-17T03:19:42.871Z,2.65
2022-09-17T03:22:12.622Z,2.95
2022-09-17T03:24:40.765Z,2.55
2022-09-17T03:27:08.762Z,2.60
2022-09-17T03:29:36.751Z,2.92
2022-09-17T03:32:05.512Z,2.55
2022-09-17T03:34:33.470Z,2.97
2022-09-17T03:37:01.414Z,3.25
2022-09-17T03:39:31.253Z,2.40
2022-09-17T03:41:59.182Z,2.50
2022-09-17T03:44:27.133Z,2.63
2022-09-17T03:46:55.098Z,2.15
2022-09-17T03:49:23.971Z,2.47
2022-09-17T03:51:51.962Z,2.75
2022-09-17T03:54:19.875Z,2.80
2022-09-17T03:56:49.161Z,2.47
2022-09-17T03:59:17.195Z,2.67
2022-09-17T04:01:45.209Z,2.53
2022-09-17T04:04:13.182Z,2.28
2022-09-17T04:06:41.084Z,2.97
2022-09-17T04:09:09.045Z,2.60
2022-09-17T04:11:36.990Z,2.70
2022-09-17T04:14:06.375Z,2.08
2022-09-17T04:16:34.322Z,2.58
2022-09-17T04:19:02.282Z,2.28
2022-09-17T04:21:30.178Z,2.42
2022-09-17T04:23:58.346Z,2.80
2022-09-17T04:26:26.270Z,2.10
2022-09-17T04:28:54.179Z,2.40
2022-09-17T04:31:25.128Z,2.50
2022-09-17T04:33:53.090Z,2.67
2022-09-17T04:36:21.090Z,2.50
2022-09-17T04:38:49.709Z,2.35
2022-09-17T04:41:17.926Z,2.17
2022-09-17T04:43:45.860Z,2.70
2022-09-17T04:46:14.753Z,2.92
2022-09-17T04:48:44.144Z,2.67
2022-09-17T04:51:12.306Z,2.67
2022-09-17T04:53:40.197Z,2.50
2022-09-17T04:56:08.090Z,2.67
2022-09-17T04:58:36.027Z,2.80
2022-09-17T05:01:04.226Z,2.67
2022-09-17T05:03:32.221Z,3.00
2022-09-17T05:06:01.928Z,2.70
2022-09-17T05:08:29.838Z,2.88
2022-09-17T05:10:57.754Z,2.47
2022-09-17T05:13:25.720Z,2.40
2022-09-17T05:15:56.591Z,2.50
2022-09-17T05:18:25.051Z,2.80
2022-09-17T05:20:53.222Z,2.75
2022-09-17T05:23:22.546Z,3.05
2022-09-17T05:25:50.776Z,2.88
2022-09-17T05:28:18.695Z,3.42
2022-09-17T05:30:46.745Z,3.05
2022-09-17T05:33:14.655Z,3.63
2022-09-17T05:35:44.205Z,3.20
2022-09-17T05:38:12.270Z,3.30
2022-09-17T05:40:41.609Z,3.17
2022-09-17T05:43:10.735Z,3.67
2022-09-17T05:45:39.021Z,3.42
2022-09-17T05:48:09.013Z,4.00
2022-09-17T05:50:37.022Z,3.58
2022-09-17T05:53:06.358Z,3.63
2022-09-17T05:55:35.108Z,3.55
2022-09-17T05:58:11.197Z,3.78
2022-09-17T06:00:41.486Z,3.67
2022-09-17T06:03:10.157Z,3.55
2022-09-17T06:05:38.167Z,4.07
2022-09-17T06:08:06.721Z,4.07
2022-09-17T06:10:37.737Z,3.30
2022-09-17T06:13:07.062Z,3.30
2022-09-17T06:15:35.012Z,3.47
2022-09-17T06:18:02.997Z,3.45
2022-09-17T06:20:30.942Z,3.90
2022-09-17T06:22:59.294Z,3.75
2022-09-17T06:25:27.606Z,4.05
2022-09-17T06:27:55.509Z,3.38
2022-09-17T06:30:24.834Z,4.20
2022-09-17T06:32:53.016Z,4.05
2022-09-17T06:35:21.072Z,3.88
2022-09-17T06:37:49.069Z,4.28
2022-09-17T06:40:17.825Z,3.92
2022-09-17T06:42:45.802Z,3.72
2022-09-17T06:45:16.743Z,3.65
2022-09-17T06:47:47.490Z,3.28
2022-09-17T06:50:15.513Z,3.50
2022-09-17T06:52:49.437Z,3.60
2022-09-17T06:55:18.169Z,3.45
2022-09-17T06:57:46.320Z,3.38
2022-09-17T07:00:15.521Z,3.15
2022-09-17T07:02:43.440Z,3.60
2022-09-17T07:05:12.816Z,3.47
2022-09-17T07:07:41.009Z,3.60
2022-09-17T07:10:09.782Z,3.63
2022-09-17T07:12:42.913Z,3.70
2022-09-17T07:15:13.980Z,4.25
2022-09-17T07:17:41.923Z,4.35
2022-09-17T07:20:12.703Z,4.00
2022-09-17T07:22:40.744Z,4.30
2022-09-17T07:25:09.595Z,4.15
2022-09-17T07:27:37.526Z,5.18
2022-09-17T07:30:06.378Z,4.22
2022-09-17T07:32:34.295Z,4.20
2022-09-17T07:35:02.224Z,6.20
2022-09-17T07:37:31.523Z,5.53
2022-09-17T07:39:59.513Z,5.40
2022-09-17T07:42:27.736Z,5.28
2022-09-17T07:44:59.817Z,4.65
2022-09-17T07:47:29.967Z,3.53
2022-09-17T07:49:57.904Z,4.45
2022-09-17T07:52:25.897Z,3.50
2022-09-17T07:54:55.181Z,2.83
2022-09-17T07:57:23.074Z,2.65
2022-09-17T07:59:50.989Z,3.20
2022-09-17T08:02:23.759Z,3.65
2022-09-17T08:04:52.178Z,3.00
2022-09-17T08:07:20.100Z,3.35
2022-09-17T08:09:48.005Z,3.55
2022-09-17T08:12:18.471Z,3.30
2022-09-17T08:14:46.423Z,10.23
2022-09-17T08:17:14.321Z,5.75
2022-09-17T08:19:42.997Z,4.35
2022-09-17T08:22:10.952Z,3.03
2022-09-17T08:24:38.902Z,3.45
2022-09-17T08:27:06.854Z,5.47
2022-09-17T08:29:36.148Z,5.72
2022-09-17T08:32:04.510Z,4.95
2022-09-17T08:34:32.420Z,5.63
2022-09-17T08:37:00.362Z,4.75
2022-09-17T08:39:28.254Z,5.95
2022-09-17T08:42:06.726Z,5.05
2022-09-17T08:44:42.500Z,4.68
2022-09-17T08:47:18.584Z,4.55
2022-09-17T08:49:52.158Z,5.35
2022-09-17T08:52:34.603Z,4.85
2022-09-17T08:55:12.402Z,4.85
2022-09-17T08:57:47.471Z,3.70
2022-09-17T09:00:20.054Z,3.45
2022-09-17T09:03:05.840Z,3.30
2022-09-17T09:05:42.454Z,3.55
2022-09-17T09:08:18.264Z,3.17
2022-09-17T09:10:51.286Z,3.45
2022-09-17T09:13:23.396Z,3.28
2022-09-17T09:15:59.442Z,3.15
2022-09-17T09:18:30.710Z,3.22
2022-09-17T09:21:12.217Z,3.10
2022-09-17T09:23:52.578Z,2.80
2022-09-17T09:26:22.125Z,2.80
2022-09-17T09:29:06.602Z,2.85
2022-09-17T09:32:01.667Z,3.05
2022-09-17T09:34:31.211Z,3.05
2022-09-17T09:37:14.445Z,3.35
2022-09-17T09:39:46.187Z,2.60
2022-09-17T09:42:21.726Z,2.85
2022-09-17T09:44:50.488Z,3.13
2022-09-17T09:47:35.276Z,2.92
2022-09-17T09:50:22.797Z,3.15
2022-09-17T09:53:04.173Z,3.30
2022-09-17T09:55:55.002Z,3.33
2022-09-17T09:58:29.213Z,3.20
2022-09-17T10:00:57.148Z,3.10
2022-09-17T10:03:32.194Z,2.95
2022-09-17T10:06:02.190Z,3.00
2022-09-17T10:08:33.067Z,2.70
2022-09-17T10:11:02.895Z,3.67
2022-09-17T10:13:32.445Z,3.20
2022-09-17T10:16:18.953Z,3.70
2022-09-17T10:18:49.482Z,4.05
2022-09-17T10:21:22.394Z,3.75
2022-09-17T10:23:51.524Z,3.33
2022-09-17T10:26:26.167Z,2.60
2022-09-17T10:28:56.921Z,2.50
2022-09-17T10:31:25.380Z,2.25
2022-09-17T10:34:03.359Z,2.38
2022-09-17T10:36:43.334Z,4.03
2022-09-17T10:39:34.180Z,1.67
2022-09-17T10:42:04.123Z,1.85
2022-09-17T10:44:35.551Z,4.05
2022-09-17T10:47:07.535Z,1.60
2022-09-17T10:49:45.536Z,1.95
2022-09-17T10:52:25.383Z,2.22
2022-09-17T10:55:20.912Z,1.80
2022-09-17T10:58:02.129Z,2.67
2022-09-17T11:00:40.007Z,1.92
2022-09-17T11:03:45.284Z,1.75
2022-09-17T11:06:27.604Z,1.90
2022-09-17T11:09:06.627Z,2.25
2022-09-17T11:11:48.258Z,2.22
2022-09-17T11:14:33.651Z,3.13
2022-09-17T11:17:11.909Z,2.95
2022-09-17T11:19:49.764Z,3.10
2022-09-17T11:22:24.982Z,3.10
2022-09-17T11:25:15.689Z,3.20
2022-09-17T11:27:57.150Z,3.97
2022-09-17T11:30:27.222Z,3.75
2022-09-17T11:33:10.619Z,4.18
2022-09-17T11:35:42.343Z,4.43
2022-09-17T11:38:18.360Z,4.85
2022-09-17T11:40:49.738Z,3.17
2022-09-17T11:43:27.397Z,3.00
2022-09-17T11:46:01.713Z,2.65
2022-09-17T11:48:37.623Z,2.70
2022-09-17T11:51:16.006Z,2.72
2022-09-17T11:53:49.432Z,2.25
2022-09-17T11:58:53.252Z,2.70
2022-09-17T12:01:29.942Z,3.15
2022-09-17T12:04:01.834Z,3.75
2022-09-17T12:06:39.592Z,3.67
2022-09-17T12:09:15.288Z,3.72
2022-09-17T12:11:48.383Z,3.33
2022-09-17T12:14:22.965Z,3.65
2022-09-17T12:16:53.844Z,2.88
2022-09-17T12:19:26.777Z,3.17
2022-09-17T12:21:59.289Z,3.20
2022-09-17T12:24:30.543Z,3.33
2022-09-17T12:27:11.166Z,3.50
2022-09-17T12:29:52.050Z,3.42
2022-09-17T12:32:36.105Z,3.40
2022-09-17T12:35:19.390Z,3.15
2022-09-17T12:38:01.737Z,3.53
2022-09-17T12:40:36.519Z,3.55
2022-09-17T12:43:28.619Z,4.22
2022-09-17T12:46:15.757Z,4.90
2022-09-17T12:49:15.672Z,4.25
2022-09-17T12:51:54.804Z,3.83
2022-09-17T12:54:58.695Z,3.75
2022-09-17T12:57:38.265Z,4.45
2022-09-17T13:00:11.447Z,3.38
2022-09-17T13:02:43.490Z,3.35
2022-09-17T13:05:36.356Z,3.72
2022-09-17T13:08:35.253Z,3.30
2022-09-17T13:11:20.842Z,3.72
2022-09-17T13:13:56.831Z,3.78
2022-09-17T13:16:33.593Z,3.20
2022-09-17T13:19:23.119Z,3.35
2022-09-17T13:21:55.783Z,3.78
2022-09-17T13:24:25.685Z,3.90
2022-09-17T13:26:56.121Z,3.70
2022-09-17T13:30:02.082Z,3.47
2022-09-17T13:32:51.101Z,3.17
2022-09-17T13:35:53.028Z,3.38
2022-09-17T13:38:24.634Z,3.10
2022-09-17T13:40:53.341Z,3.60
2022-09-17T13:43:27.173Z,3.33
2022-09-17T13:46:15.412Z,3.22
2022-09-17T13:48:53.735Z,3.00
2022-09-17T13:51:53.148Z,2.88
2022-09-17T13:54:23.795Z,2.58
2022-09-17T13:57:12.097Z,2.92
2022-09-17T13:59:52.720Z,2.97
2022-09-17T14:02:38.058Z,2.83
2022-09-17T14:05:26.599Z,2.83
2022-09-17T14:08:12.886Z,2.70
2022-09-17T14:10:45.124Z,2.50
2022-09-17T14:13:41.317Z,3.13
2022-09-17T14:16:47.186Z,2.75
2022-09-17T14:19:28.114Z,2.65
2022-09-17T14:22:02.385Z,2.47
2022-09-17T14:24:37.202Z,2.28
2022-09-17T14:27:16.921Z,2.30
2022-09-17T14:30:11.502Z,2.60
2022-09-17T14:32:43.794Z,2.63
2022-09-17T14:35:20.443Z,2.67
2022-09-17T14:37:54.917Z,2.35
2022-09-17T14:40:24.320Z,2.13
2022-09-17T14:42:56.974Z,2.15
2022-09-17T14:45:33.003Z,2.03
2022-09-17T14:48:21.054Z,1.88
2022-09-17T14:50:50.344Z,2.00
2022-09-17T14:53:21.121Z,2.40
2022-09-17T14:55:51.361Z,2.33
2022-09-17T14:58:38.734Z,2.08
2022-09-17T15:01:07.561Z,1.98
2022-09-17T15:03:35.493Z,1.90
2022-09-17T15:06:05.006Z,2.10
2022-09-17T15:08:33.422Z,2.05
2022-09-17T15:11:03.475Z,2.15
2022-09-17T15:13:33.231Z,2.00
2022-09-17T15:16:05.045Z,2.00
2022-09-17T15:18:37.379Z,2.83
2022-09-17T15:21:16.363Z,2.08
2022-09-17T15:23:45.357Z,2.22
2022-09-17T15:26:23.845Z,2.47
2022-09-17T15:28:52.330Z,1.92
2022-09-17T15:31:21.406Z,2.10
2022-09-17T15:33:49.748Z,2.15
2022-09-17T15:36:23.007Z,2.10
2022-09-17T15:38:51.946Z,2.22
2022-09-17T15:41:30.796Z,2.13
2022-09-17T15:44:29.004Z,1.92
2022-09-17T15:46:57.867Z,1.85
2022-09-17T15:49:31.806Z,1.80
2022-09-17T15:52:28.334Z,1.92
2022-09-17T15:54:56.282Z,1.88
2022-09-17T15:57:26.878Z,1.60
2022-09-17T15:59:55.905Z,2.05
2022-09-17T16:02:29.045Z,1.70
2022-09-17T16:05:55.714Z,1.70
2022-09-17T16:08:35.243Z,3.20
2022-09-17T16:11:03.161Z,7.07
2022-09-17T16:13:31.074Z,7.32
2022-09-17T16:15:59.100Z,7.00
2022-09-17T16:18:27.739Z,5.30
2022-09-17T16:20:55.639Z,3.80
2022-09-17T16:23:24.945Z,2.95
2022-09-17T16:25:53.306Z,3.33
2022-09-17T16:28:21.473Z,3.15
2022-09-17T16:30:50.544Z,2.47
2022-09-17T16:33:19.369Z,2.60
2022-09-17T16:35:47.284Z,2.10
2022-09-17T16:38:15.268Z,1.88
2022-09-17T16:40:47.240Z,2.00
2022-09-17T16:43:15.820Z,1.90
2022-09-17T16:45:43.762Z,2.25
2022-09-17T16:48:11.810Z,1.92
2022-09-17T16:50:41.986Z,2.10
2022-09-17T16:53:09.931Z,2.05
2022-09-17T16:55:37.972Z,1.90
2022-09-17T16:58:07.282Z,1.75
2022-09-17T17:00:36.160Z,1.90
2022-09-17T17:03:06.891Z,1.90
2022-09-17T17:05:38.029Z,1.90
2022-09-17T17:08:06.995Z,2.10
2022-09-17T17:10:35.398Z,2.22
2022-09-17T17:13:03.309Z,1.88
2022-09-17T17:15:32.730Z,1.75
2022-09-17T17:18:00.650Z,1.80
2022-09-17T17:20:28.563Z,1.90
2022-09-17T17:22:56.568Z,2.10
2022-09-17T17:25:24.863Z,1.80
2022-09-17T17:27:52.824Z,1.77
2022-09-17T17:30:20.799Z,2.10
2022-09-17T17:32:53.520Z,1.90
2022-09-17T17:35:21.918Z,2.10
2022-09-17T17:37:50.671Z,1.70
2022-09-17T17:40:18.717Z,1.92
2022-09-17T17:42:47.604Z,2.17
2022-09-17T17:45:15.980Z,1.80
2022-09-17T17:47:43.886Z,2.15
2022-09-17T17:50:13.202Z,2.35
2022-09-17T17:52:43.565Z,1.90
2022-09-17T17:55:11.604Z,1.90
2022-09-17T17:57:39.579Z,2.00
2022-09-17T18:00:09.145Z,2.00
2022-09-17T18:02:37.149Z,2.50
2022-09-17T18:05:05.334Z,1.80
2022-09-17T18:07:34.802Z,2.35
2022-09-17T18:10:02.766Z,2.30
2022-09-17T18:12:30.704Z,2.22
2022-09-17T18:14:58.617Z,2.40
2022-09-17T18:17:26.544Z,2.40
2022-09-17T18:19:56.424Z,2.45
2022-09-17T18:22:24.360Z,2.00
2022-09-17T18:24:53.687Z,2.22
2022-09-17T18:27:21.595Z,2.20
2022-09-17T18:29:49.630Z,2.83
2022-09-17T18:32:17.538Z,2.17
2022-09-17T18:34:45.461Z,2.42
2022-09-17T18:37:13.400Z,2.70
2022-09-17T18:42:30.641Z,2.58
2022-09-17T18:44:58.559Z,2.53
2022-09-17T18:47:26.511Z,2.50
2022-09-17T18:49:54.527Z,2.30
2022-09-17T18:52:22.597Z,2.28
2022-09-17T18:54:50.492Z,2.20
2022-09-17T18:57:18.405Z,2.25
2022-09-17T18:59:47.758Z,1.95
2022-09-17T19:02:15.771Z,2.22
2022-09-17T19:04:43.775Z,2.10
2022-09-17T19:07:11.692Z,2.28
2022-09-17T19:09:39.583Z,2.08
2022-09-17T19:12:07.672Z,1.90
2022-09-17T19:14:35.590Z,1.98
2022-09-17T19:17:04.920Z,1.60
2022-09-17T19:19:32.865Z,1.52
2022-09-17T19:22:00.789Z,1.73
2022-09-17T19:24:28.725Z,1.48
2022-09-17T19:26:56.612Z,1.60
2022-09-17T19:29:24.603Z,1.65
2022-09-17T19:31:52.529Z,1.63
2022-09-17T19:34:21.838Z,1.67
2022-09-17T19:36:49.773Z,1.40
2022-09-17T19:39:17.935Z,1.33
2022-09-17T19:41:45.833Z,1.25
2022-09-17T19:44:13.731Z,1.40
2022-09-17T19:46:41.802Z,1.42
2022-09-17T19:49:10.879Z,1.70
2022-09-17T19:51:40.205Z,1.25
2022-09-17T19:54:09.606Z,1.40
2022-09-17T19:56:37.525Z,1.27
2022-09-17T19:59:05.539Z,1.30
2022-09-17T20:01:34.927Z,1.42
2022-09-17T20:04:03.491Z,1.67
2022-09-17T20:06:34.080Z,1.52
2022-09-17T20:09:03.522Z,1.30
2022-09-17T20:11:31.458Z,1.50
2022-09-17T20:14:03.109Z,1.45
2022-09-17T20:16:31.635Z,1.70
2022-09-17T20:18:59.821Z,1.40
2022-09-17T20:21:29.910Z,1.40
2022-09-17T20:23:58.480Z,1.45
2022-09-17T20:26:28.508Z,1.55
2022-09-17T20:28:56.635Z,1.30
2022-09-17T20:31:25.829Z,1.20
2022-09-17T20:33:54.494Z,1.40
2022-09-17T20:36:25.286Z,1.35
2022-09-17T20:41:43.199Z,1.20
2022-09-17T20:44:11.291Z,1.50
2022-09-17T20:46:39.274Z,1.40
2022-09-17T20:49:07.405Z,0.90
2022-09-17T20:51:35.463Z,1.40
2022-09-17T20:54:03.498Z,1.50
2022-09-17T20:56:33.666Z,1.20
2022-09-17T20:59:09.448Z,1.60
2022-09-17T21:01:38.078Z,1.40
2022-09-17T21:04:08.293Z,1.20
2022-09-17T21:06:38.301Z,1.10
2022-09-17T21:09:07.410Z,1.55
2022-09-17T21:11:35.921Z,1.30
2022-09-17T21:14:05.461Z,1.40
2022-09-17T21:16:33.419Z,1.17
2022-09-17T21:19:03.501Z,1.23
2022-09-17T21:21:34.502Z,1.52
2022-09-17T21:24:03.496Z,1.13
2022-09-17T21:26:32.063Z,1.50
2022-09-17T21:28:59.990Z,1.20
2022-09-17T21:31:32.941Z,1.30
2022-09-17T21:34:03.649Z,1.65
2022-09-17T21:36:33.647Z,1.20
2022-09-17T21:39:02.802Z,1.00
2022-09-17T21:41:31.713Z,1.08
2022-09-17T21:43:59.736Z,1.10
2022-09-17T21:46:30.396Z,1.00
2022-09-17T21:49:00.145Z,1.10
2022-09-17T21:51:30.659Z,0.90
2022-09-17T21:54:00.614Z,1.15
2022-09-17T21:56:29.834Z,1.00
2022-09-17T21:58:59.932Z,0.80
2022-09-17T22:01:32.329Z,1.10
2022-09-17T22:04:02.142Z,0.80
2022-09-17T22:06:31.825Z,0.90
2022-09-17T22:09:02.163Z,1.00
2022-09-17T22:11:33.760Z,1.10
2022-09-17T22:14:05.253Z,1.08
2022-09-17T22:16:36.078Z,0.90
2022-09-17T22:19:05.762Z,1.15
2022-09-17T22:21:36.165Z,1.20
2022-09-17T22:24:05.110Z,0.93
2022-09-17T22:26:34.562Z,1.10
2022-09-17T22:29:03.012Z,1.10
2022-09-17T22:31:31.511Z,0.95
2022-09-17T22:34:01.394Z,1.10
2022-09-17T22:36:30.237Z,1.15
2022-09-17T22:38:59.608Z,0.90
2022-09-17T22:41:29.089Z,1.00
2022-09-17T22:43:58.906Z,1.25
2022-09-17T22:46:29.179Z,1.33
2022-09-17T22:48:57.593Z,1.10
2022-09-17T22:51:28.647Z,1.02
2022-09-17T22:53:56.772Z,0.98
2022-09-17T22:56:25.362Z,1.05
2022-09-17T22:58:53.255Z,1.00
2022-09-17T23:01:23.866Z,1.30
2022-09-17T23:03:53.624Z,1.02
2022-09-17T23:06:23.894Z,0.90
2022-09-17T23:08:53.837Z,1.13
2022-09-17T23:11:24.226Z,1.02
2022-09-17T23:13:52.757Z,1.50
2022-09-17T23:16:21.123Z,1.25
2022-09-17T23:18:49.088Z,1.20
2022-09-17T23:21:18.704Z,1.20
2022-09-17T23:23:48.783Z,1.02
2022-09-17T23:26:20.373Z,1.05
2022-09-17T23:28:48.856Z,1.10
2022-09-17T23:31:18.352Z,1.08
2022-09-17T23:33:46.945Z,1.10
2022-09-17T23:36:17.011Z,1.20
2022-09-17T23:38:46.102Z,1.30
2022-09-17T23:41:17.117Z,1.52
2022-09-17T23:43:48.837Z,1.10
2022-09-17T23:46:17.688Z,1.33
2022-09-17T23:48:45.752Z,1.20
2022-09-17T23:51:13.937Z,1.35
2022-09-17T23:53:41.879Z,1.05
2022-09-17T23:56:13.622Z,1.58
2022-09-17T23:58:41.828Z,1.23
